createdAt,value
2024-01-22T00:02:33.469Z,100.00
2024-01-22T00:05:13.534Z,100.00
2024-01-22T00:07:53.399Z,100.00
2024-01-22T00:10:47.424Z,100.00
2024-01-22T00:13:41.416Z,100.00
2024-01-22T00:16:35.413Z,100.00
2024-01-22T00:19:22.469Z,100.00
2024-01-22T00:22:02.447Z,100.00
2024-01-22T00:24:56.424Z,100.00
2024-01-22T00:27:50.403Z,100.00
2024-01-22T00:30:37.413Z,100.00
2024-01-22T00:33:24.514Z,100.00
2024-01-22T00:35:57.809Z,100.00
2024-01-22T00:38:44.456Z,100.00
2024-01-22T00:41:17.775Z,100.00
2024-01-22T00:44:04.413Z,100.00
2024-01-22T00:46:44.424Z,100.00
2024-01-22T00:49:24.612Z,100.00
2024-01-22T00:52:04.427Z,100.00
2024-01-22T00:54:44.606Z,100.00
2024-01-22T00:57:28.430Z,100.00
2024-01-22T01:00:15.482Z,100.00
2024-01-22T01:02:53.935Z,100.00
2024-01-22T01:05:40.430Z,100.00
2024-01-22T01:08:20.429Z,100.00
2024-01-22T01:11:14.456Z,100.00
2024-01-22T01:14:01.437Z,100.00
2024-01-22T01:16:34.533Z,100.00
2024-01-22T01:19:21.525Z,100.00
2024-01-22T01:22:04.409Z,100.00
2024-01-22T01:24:44.821Z,100.00
2024-01-22T01:27:32.483Z,100.00
2024-01-22T01:30:06.465Z,100.00
2024-01-22T01:32:53.608Z,100.00
2024-01-22T01:35:50.474Z,100.00
2024-01-22T01:38:37.462Z,100.00
2024-01-22T01:41:17.540Z,100.00
2024-01-22T01:43:57.455Z,100.00
2024-01-22T01:46:37.650Z,100.00
2024-01-22T01:49:17.546Z,100.00
2024-01-22T01:51:57.559Z,100.00
2024-01-22T01:54:38.445Z,100.00
2024-01-22T01:57:27.588Z,100.00
2024-01-22T02:00:08.804Z,100.00
2024-01-22T02:02:49.610Z,100.00
2024-01-22T02:05:29.499Z,100.00
2024-01-22T02:08:16.457Z,100.00
2024-01-22T02:10:56.460Z,100.00
2024-01-22T02:13:43.445Z,100.00
2024-01-22T02:16:16.904Z,100.00
2024-01-22T02:19:04.672Z,100.00
2024-01-22T02:21:37.783Z,100.00
2024-01-22T02:24:24.473Z,100.00
2024-01-22T02:27:04.564Z,100.00
2024-01-22T02:29:51.490Z,100.00
2024-01-22T02:32:24.868Z,100.00
2024-01-22T02:35:11.454Z,100.00
2024-01-22T02:37:51.480Z,100.00
2024-01-22T02:40:31.546Z,100.00
2024-01-22T02:43:18.491Z,100.00
2024-01-22T02:45:51.553Z,100.00
2024-01-22T02:48:38.644Z,100.00
2024-01-22T02:51:18.630Z,100.00
2024-01-22T02:54:05.551Z,100.00
2024-01-22T02:56:38.792Z,100.00
2024-01-22T02:59:26.530Z,100.00
2024-01-22T03:02:06.477Z,100.00
2024-01-22T03:04:53.470Z,100.00
2024-01-22T03:07:26.590Z,100.00
2024-01-22T03:10:20.481Z,100.00
2024-01-22T03:13:14.466Z,100.00
2024-01-22T03:16:01.486Z,100.00
2024-01-22T03:18:34.738Z,100.00
2024-01-22T03:21:16.011Z,100.00
2024-01-22T03:23:56.598Z,100.00
2024-01-22T03:26:36.490Z,100.00
2024-01-22T03:29:16.476Z,100.00
2024-01-22T03:31:56.458Z,100.00
2024-01-22T03:34:36.877Z,100.00
2024-01-22T03:37:23.478Z,100.00
2024-01-22T03:39:56.813Z,100.00
2024-01-22T03:42:43.474Z,100.00
2024-01-22T03:45:16.988Z,100.00
2024-01-22T03:48:03.634Z,100.00
2024-01-22T03:50:43.670Z,100.00
2024-01-22T03:53:30.457Z,100.00
2024-01-22T03:56:05.514Z,100.00
2024-01-22T03:58:53.458Z,100.00
2024-01-22T04:01:26.873Z,100.00
2024-01-22T04:04:13.531Z,100.00
2024-01-22T04:06:53.620Z,100.00
2024-01-22T04:09:33.616Z,100.00
2024-01-22T04:12:13.578Z,100.00
2024-01-22T04:15:00.557Z,100.00
2024-01-22T04:17:33.935Z,100.00
2024-01-22T04:20:21.497Z,100.00
2024-01-22T04:23:01.485Z,100.00
2024-01-22T04:25:41.655Z,100.00
2024-01-22T04:28:22.532Z,100.00
2024-01-22T04:31:02.655Z,100.00
2024-01-22T04:33:42.688Z,100.00
2024-01-22T04:36:22.650Z,100.00
2024-01-22T04:39:02.509Z,100.00
2024-01-22T04:41:49.525Z,100.00
2024-01-22T04:44:29.490Z,100.00
2024-01-22T04:47:16.494Z,100.00
2024-01-22T04:49:49.839Z,100.00
2024-01-22T04:52:36.497Z,100.00
2024-01-22T04:55:21.007Z,100.00
2024-01-22T04:58:02.629Z,100.00
2024-01-22T05:00:42.571Z,100.00
2024-01-22T05:03:22.722Z,100.00
2024-01-22T05:06:02.633Z,100.00
2024-01-22T05:08:49.539Z,100.00
2024-01-22T05:11:23.026Z,100.00
2024-01-22T05:14:10.497Z,100.00
2024-01-22T05:16:43.822Z,100.00
2024-01-22T05:19:30.550Z,100.00
2024-01-22T05:22:04.004Z,100.00
2024-01-22T05:24:50.531Z,100.00
2024-01-22T05:27:32.499Z,100.00
2024-01-22T05:30:20.614Z,100.00
2024-01-22T05:33:00.544Z,100.00
2024-01-22T05:35:47.516Z,100.00
2024-01-22T05:38:21.003Z,100.00
2024-01-22T05:41:07.534Z,100.00
2024-01-22T05:43:47.541Z,100.00
2024-01-22T05:46:27.641Z,100.00
2024-01-22T05:49:07.567Z,100.00
2024-01-22T05:51:48.685Z,100.00
2024-01-22T05:54:35.497Z,100.00
2024-01-22T05:57:29.525Z,100.00
2024-01-22T06:00:17.574Z,100.00
2024-01-22T06:02:50.875Z,100.00
2024-01-22T06:05:37.666Z,100.00
2024-01-22T06:08:20.520Z,100.00
2024-01-22T06:11:14.521Z,100.00
2024-01-22T06:14:02.766Z,100.00
2024-01-22T06:16:43.513Z,100.00
2024-01-22T06:19:37.565Z,100.00
2024-01-22T06:22:26.502Z,100.00
2024-01-22T06:25:01.376Z,100.00
2024-01-22T06:27:51.514Z,100.00
2024-01-22T06:30:31.566Z,100.00
2024-01-22T06:33:18.702Z,100.00
2024-01-22T06:35:52.678Z,100.00
2024-01-22T06:38:39.644Z,100.00
2024-01-22T06:41:30.496Z,100.00
2024-01-22T06:44:17.538Z,100.00
2024-01-22T06:46:50.628Z,100.00
2024-01-22T06:49:37.705Z,100.00
2024-01-22T06:52:18.583Z,100.00
2024-01-22T06:55:12.523Z,100.00
2024-01-22T06:58:06.583Z,100.00
2024-01-22T07:00:53.584Z,100.00
2024-01-22T07:03:30.405Z,100.00
2024-01-22T07:06:17.653Z,100.00
2024-01-22T07:08:50.631Z,100.00
2024-01-22T07:11:44.621Z,100.00
2024-01-22T07:14:39.586Z,100.00
2024-01-22T07:17:29.582Z,100.00
2024-01-22T07:20:02.637Z,100.00
2024-01-22T07:22:50.577Z,100.00
2024-01-22T07:25:25.440Z,100.00
2024-01-22T07:28:12.548Z,100.00
2024-01-22T07:30:45.793Z,100.00
2024-01-22T07:33:32.742Z,100.00
2024-01-22T07:36:12.613Z,100.00
2024-01-22T07:39:02.636Z,100.00
2024-01-22T07:41:35.737Z,100.00
2024-01-22T07:44:22.586Z,100.00
2024-01-22T07:46:55.647Z,100.00
2024-01-22T07:49:42.618Z,100.00
2024-01-22T07:52:23.575Z,100.00
2024-01-22T07:55:11.596Z,100.00
2024-01-22T07:57:51.585Z,100.00
2024-01-22T08:00:40.575Z,100.00
2024-01-22T08:03:20.607Z,100.00
2024-01-22T08:06:14.637Z,100.00
2024-01-22T08:09:01.686Z,100.00
2024-01-22T08:11:34.652Z,100.00
2024-01-22T08:14:21.638Z,100.00
2024-01-22T08:16:55.722Z,100.00
2024-01-22T08:19:42.588Z,100.00
2024-01-22T08:22:15.691Z,100.00
2024-01-22T08:25:02.558Z,100.00
2024-01-22T08:27:42.577Z,100.00
2024-01-22T08:30:29.593Z,100.00
2024-01-22T08:33:02.778Z,100.00
2024-01-22T08:35:49.734Z,100.00
2024-01-22T08:38:29.590Z,100.00
2024-01-22T08:41:23.595Z,100.00
2024-01-22T08:44:17.612Z,100.00
2024-01-22T08:47:04.603Z,100.00
2024-01-22T08:49:44.604Z,100.00
2024-01-22T08:52:31.591Z,100.00
2024-01-22T08:55:13.593Z,100.00
2024-01-22T08:58:01.600Z,100.00
2024-01-22T09:00:34.771Z,100.00
2024-01-22T09:03:21.629Z,99.74
2024-01-22T09:05:54.759Z,99.00
2024-01-22T09:08:41.611Z,98.96
2024-01-22T09:11:14.752Z,98.58
2024-01-22T09:14:01.651Z,98.32
2024-01-22T09:16:34.749Z,97.50
2024-01-22T09:19:21.790Z,97.96
2024-01-22T09:22:08.615Z,97.87
2024-01-22T09:24:41.966Z,97.21
2024-01-22T09:27:28.673Z,96.91
2024-01-22T09:30:02.142Z,96.82
2024-01-22T09:32:48.801Z,96.48
2024-01-22T09:35:22.031Z,96.02
2024-01-22T09:38:08.604Z,95.33
2024-01-22T09:40:48.713Z,95.25
2024-01-22T09:43:29.618Z,94.53
2024-01-22T09:46:10.278Z,93.89
2024-01-22T09:48:49.887Z,93.54
2024-01-22T09:51:29.611Z,93.21
2024-01-22T09:54:09.809Z,92.87
2024-01-22T09:57:01.642Z,91.88
2024-01-22T09:59:36.796Z,92.39
2024-01-22T10:02:24.623Z,92.12
2024-01-22T10:05:06.011Z,92.31
2024-01-22T10:07:52.786Z,91.58
2024-01-22T10:10:26.731Z,91.55
2024-01-22T10:13:15.636Z,90.82
2024-01-22T10:15:49.412Z,89.57
2024-01-22T10:18:36.725Z,88.21
2024-01-22T10:21:10.811Z,87.33
2024-01-22T10:24:07.648Z,87.38
2024-01-22T10:26:49.686Z,87.13
2024-01-22T10:29:36.651Z,86.74
2024-01-22T10:32:09.725Z,87.31
2024-01-22T10:35:00.659Z,85.73
2024-01-22T10:37:33.754Z,86.63
2024-01-22T10:40:20.630Z,85.88
2024-01-22T10:42:53.683Z,85.50
2024-01-22T10:45:40.675Z,84.57
2024-01-22T10:48:20.578Z,84.68
2024-01-22T10:51:14.880Z,84.80
2024-01-22T10:53:55.706Z,84.98
2024-01-22T10:56:52.652Z,84.92
2024-01-22T10:59:53.680Z,85.09
2024-01-22T11:02:49.722Z,83.25
2024-01-22T11:05:47.809Z,82.48
2024-01-22T11:08:50.699Z,83.23
2024-01-22T11:11:46.665Z,83.33
2024-01-22T11:14:40.650Z,83.75
2024-01-22T11:17:34.681Z,83.21
2024-01-22T11:20:28.773Z,83.62
2024-01-22T11:23:16.638Z,84.25
2024-01-22T11:26:18.752Z,83.57
2024-01-22T11:29:24.635Z,82.19
2024-01-22T11:32:34.665Z,82.66
2024-01-22T11:35:21.422Z,83.30
2024-01-22T11:38:23.634Z,83.21
2024-01-22T11:41:11.695Z,83.09
2024-01-22T11:43:44.740Z,82.17
2024-01-22T11:46:33.657Z,82.04
2024-01-22T11:49:16.863Z,82.43
2024-01-22T11:52:03.645Z,81.18
2024-01-22T11:54:44.656Z,82.39
2024-01-22T11:57:44.491Z,81.67
2024-01-22T12:00:33.906Z,80.29
2024-01-22T12:03:18.697Z,80.67
2024-01-22T12:06:12.810Z,81.35
2024-01-22T12:09:02.726Z,81.62
2024-01-22T12:11:50.765Z,81.68
2024-01-22T12:14:44.648Z,81.39
2024-01-22T12:17:38.688Z,81.21
2024-01-22T12:20:27.739Z,81.27
2024-01-22T12:23:05.992Z,80.59
2024-01-22T12:25:54.172Z,81.46
2024-01-22T12:28:28.909Z,79.82
2024-01-22T12:31:16.677Z,80.00
2024-01-22T12:33:57.718Z,80.24
2024-01-22T12:36:51.659Z,80.68
2024-01-22T12:39:38.657Z,80.47
2024-01-22T12:42:18.760Z,80.88
2024-01-22T12:45:06.726Z,80.41
2024-01-22T12:47:46.860Z,80.26
2024-01-22T12:50:40.725Z,80.51
2024-01-22T12:53:34.843Z,80.71
2024-01-22T12:56:21.715Z,79.94
2024-01-22T12:58:55.821Z,79.15
2024-01-22T13:01:42.693Z,78.80
2024-01-22T13:04:24.685Z,78.25
2024-01-22T13:07:18.751Z,78.35
2024-01-22T13:10:05.687Z,77.97
2024-01-22T13:12:45.666Z,77.49
2024-01-22T13:15:33.804Z,77.07
2024-01-22T13:18:07.846Z,76.76
2024-01-22T13:20:57.713Z,77.42
2024-01-22T13:23:37.682Z,77.55
2024-01-22T13:26:31.684Z,76.67
2024-01-22T13:29:25.688Z,76.23
2024-01-22T13:32:12.677Z,74.91
2024-01-22T13:34:52.765Z,75.30
2024-01-22T13:37:41.669Z,75.36
2024-01-22T13:40:17.456Z,76.59
2024-01-22T13:43:04.695Z,76.25
2024-01-22T13:45:37.902Z,76.46
2024-01-22T13:48:24.866Z,76.57
2024-01-22T13:51:05.715Z,77.08
2024-01-22T13:53:59.767Z,77.51
2024-01-22T13:56:46.699Z,77.89
2024-01-22T13:59:19.820Z,78.47
2024-01-22T14:02:06.681Z,77.94
2024-01-22T14:04:42.575Z,78.51
2024-01-22T14:07:29.714Z,79.26
2024-01-22T14:10:02.935Z,78.85
2024-01-22T14:12:56.752Z,79.31
2024-01-22T14:15:44.711Z,78.98
2024-01-22T14:18:25.844Z,79.04
2024-01-22T14:21:20.784Z,79.82
2024-01-22T14:24:15.740Z,80.28
2024-01-22T14:27:04.653Z,80.91
2024-01-22T14:29:45.756Z,81.22
2024-01-22T14:32:35.673Z,81.30
2024-01-22T14:35:16.737Z,81.84
2024-01-22T14:38:03.688Z,82.42
2024-01-22T14:40:43.717Z,82.12
2024-01-22T14:43:40.677Z,82.55
2024-01-22T14:46:34.706Z,83.12
2024-01-22T14:49:28.781Z,83.21
2024-01-22T14:52:15.757Z,83.77
2024-01-22T14:54:56.692Z,83.85
2024-01-22T14:57:43.743Z,83.93
2024-01-22T15:00:18.377Z,84.01
2024-01-22T15:03:05.907Z,84.37
2024-01-22T15:05:52.808Z,84.77
2024-01-22T15:08:32.731Z,84.67
2024-01-22T15:11:19.736Z,84.50
2024-01-22T15:14:13.706Z,84.57
2024-01-22T15:17:01.711Z,84.68
2024-01-22T15:19:42.755Z,84.83
2024-01-22T15:22:36.701Z,84.57
2024-01-22T15:25:30.744Z,84.77
2024-01-22T15:28:17.803Z,84.75
2024-01-22T15:31:04.746Z,84.70
2024-01-22T15:33:44.880Z,85.07
2024-01-22T15:36:31.742Z,85.16
2024-01-22T15:39:12.749Z,85.06
2024-01-22T15:41:52.816Z,85.05
2024-01-22T15:44:32.757Z,85.31
2024-01-22T15:47:12.854Z,85.50
2024-01-22T15:49:52.750Z,85.72
2024-01-22T15:52:39.733Z,85.64
2024-01-22T15:55:13.078Z,85.94
2024-01-22T15:57:59.793Z,85.60
2024-01-22T16:00:53.744Z,85.20
2024-01-22T16:03:40.836Z,85.24
2024-01-22T16:06:21.923Z,85.18
2024-01-22T16:09:02.115Z,84.30
2024-01-22T16:11:48.797Z,83.60
2024-01-22T16:14:35.725Z,83.73
2024-01-22T16:17:16.751Z,83.70
2024-01-22T16:20:10.783Z,83.58
2024-01-22T16:22:58.731Z,83.31
2024-01-22T16:25:31.817Z,83.21
2024-01-22T16:28:18.782Z,82.73
2024-01-22T16:30:51.897Z,82.77
2024-01-22T16:33:39.877Z,82.07
2024-01-22T16:36:23.355Z,82.23
2024-01-22T16:39:03.768Z,81.66
2024-01-22T16:41:50.803Z,82.33
2024-01-22T16:44:30.752Z,82.30
2024-01-22T16:47:17.748Z,81.71
2024-01-22T16:49:57.829Z,82.29
2024-01-22T16:52:37.858Z,81.91
2024-01-22T16:55:17.768Z,82.27
2024-01-22T16:58:04.754Z,81.86
2024-01-22T17:00:38.455Z,81.33
2024-01-22T17:03:25.850Z,81.64
2024-01-22T17:05:59.239Z,81.40
2024-01-22T17:08:45.766Z,81.30
2024-01-22T17:11:26.738Z,81.70
2024-01-22T17:14:20.727Z,81.96
2024-01-22T17:17:14.914Z,81.99
2024-01-22T17:20:02.734Z,82.07
2024-01-22T17:22:37.244Z,82.54
2024-01-22T17:25:23.745Z,82.29
2024-01-22T17:28:03.766Z,82.54
2024-01-22T17:30:51.774Z,83.06
2024-01-22T17:33:24.985Z,82.62
2024-01-22T17:36:13.780Z,83.13
2024-01-22T17:38:53.760Z,83.16
2024-01-22T17:41:40.900Z,83.64
2024-01-22T17:44:13.993Z,83.17
2024-01-22T17:47:01.784Z,83.17
2024-01-22T17:49:35.045Z,83.52
2024-01-22T17:52:21.760Z,84.12
2024-01-22T17:55:01.811Z,83.54
2024-01-22T17:57:56.766Z,83.26
2024-01-22T18:00:43.850Z,83.83
2024-01-22T18:03:24.862Z,84.09
2024-01-22T18:06:18.811Z,84.34
2024-01-22T18:09:05.822Z,84.42
2024-01-22T18:11:46.461Z,84.29
2024-01-22T18:14:40.755Z,84.46
2024-01-22T18:17:27.796Z,85.02
2024-01-22T18:20:07.801Z,85.41
2024-01-22T18:22:54.805Z,85.42
2024-01-22T18:25:34.744Z,85.79
2024-01-22T18:28:28.765Z,86.02
2024-01-22T18:31:15.772Z,86.40
2024-01-22T18:34:02.847Z,86.57
2024-01-22T18:36:46.791Z,86.81
2024-01-22T18:39:34.307Z,86.93
2024-01-22T18:42:09.791Z,86.75
2024-01-22T18:44:56.885Z,87.33
2024-01-22T18:47:33.090Z,87.61
2024-01-22T18:50:19.795Z,88.05
2024-01-22T18:52:53.233Z,87.95
2024-01-22T18:55:39.798Z,88.22
2024-01-22T18:58:13.142Z,88.26
2024-01-22T19:00:59.816Z,88.04
2024-01-22T19:03:34.508Z,88.46
2024-01-22T19:06:21.906Z,88.63
2024-01-22T19:09:01.842Z,88.72
2024-01-22T19:11:41.934Z,89.38
2024-01-22T19:14:21.782Z,89.51
2024-01-22T19:17:03.417Z,90.27
2024-01-22T19:19:43.871Z,90.50
2024-01-22T19:22:23.928Z,90.77
2024-01-22T19:25:03.811Z,91.03
2024-01-22T19:27:50.776Z,90.97
2024-01-22T19:30:37.862Z,91.44
2024-01-22T19:33:24.919Z,90.28
2024-01-22T19:35:57.911Z,90.29
2024-01-22T19:38:44.817Z,90.20
2024-01-22T19:41:18.508Z,90.08
2024-01-22T19:44:04.801Z,90.24
2024-01-22T19:46:37.902Z,89.79
2024-01-22T19:49:24.828Z,89.48
2024-01-22T19:51:57.962Z,89.64
2024-01-22T19:54:44.973Z,89.86
2024-01-22T19:57:17.972Z,89.62
2024-01-22T20:00:04.813Z,89.42
2024-01-22T20:02:37.913Z,89.19
2024-01-22T20:05:24.825Z,89.10
2024-01-22T20:07:57.926Z,89.03
2024-01-22T20:10:44.857Z,88.96
2024-01-22T20:13:24.826Z,89.40
2024-01-22T20:16:18.800Z,89.17
2024-01-22T20:19:05.893Z,89.19
2024-01-22T20:21:38.960Z,88.65
2024-01-22T20:24:25.877Z,88.16
2024-01-22T20:26:58.917Z,88.26
2024-01-22T20:29:46.841Z,88.04
2024-01-22T20:32:20.983Z,88.19
2024-01-22T20:35:07.965Z,88.10
2024-01-22T20:37:54.929Z,87.73
2024-01-22T20:40:34.819Z,87.51
2024-01-22T20:43:14.956Z,87.68
2024-01-22T20:45:54.821Z,87.75
2024-01-22T20:48:41.969Z,87.54
2024-01-22T20:51:15.399Z,88.04
2024-01-22T20:54:01.855Z,88.10
2024-01-22T20:56:35.191Z,88.40
2024-01-22T20:59:21.828Z,88.20
2024-01-22T21:01:55.159Z,88.44
2024-01-22T21:04:41.839Z,88.68
2024-01-22T21:07:21.912Z,89.21
2024-01-22T21:10:01.953Z,89.22
2024-01-22T21:12:41.831Z,89.00
2024-01-22T21:15:28.881Z,88.88
2024-01-22T21:18:08.973Z,88.71
2024-01-22T21:20:49.923Z,88.86
2024-01-22T21:23:29.846Z,89.37
2024-01-22T21:26:21.043Z,88.98
2024-01-22T21:29:00.867Z,89.11
2024-01-22T21:31:40.967Z,89.18
2024-01-22T21:34:20.879Z,88.46
2024-01-22T21:37:07.839Z,88.45
2024-01-22T21:39:42.344Z,88.64
2024-01-22T21:42:28.948Z,88.93
2024-01-22T21:45:02.322Z,88.72
2024-01-22T21:47:49.028Z,88.86
2024-01-22T21:50:22.270Z,89.08
2024-01-22T21:53:08.823Z,88.65
2024-01-22T21:55:48.847Z,88.52
2024-01-22T21:58:28.937Z,88.98
2024-01-22T22:01:08.925Z,89.16
2024-01-22T22:03:49.059Z,89.55
2024-01-22T22:06:28.900Z,89.64
2024-01-22T22:09:09.263Z,89.43
2024-01-22T22:11:50.862Z,89.31
2024-01-22T22:14:44.850Z,89.31
2024-01-22T22:17:39.063Z,89.40
2024-01-22T22:20:25.873Z,89.68
2024-01-22T22:23:05.834Z,89.37
2024-01-22T22:25:52.826Z,89.40
2024-01-22T22:28:32.865Z,89.26
2024-01-22T22:31:26.848Z,89.54
2024-01-22T22:34:16.040Z,89.58
2024-01-22T22:36:50.232Z,89.90
2024-01-22T22:39:36.856Z,89.61
2024-01-22T22:42:10.973Z,89.70
2024-01-22T22:44:57.879Z,89.76
2024-01-22T22:47:30.960Z,89.74
2024-01-22T22:50:17.847Z,89.83
2024-01-22T22:52:50.948Z,89.88
2024-01-22T22:55:37.847Z,90.01
2024-01-22T22:58:11.183Z,90.34
2024-01-22T23:00:57.969Z,90.59
2024-01-22T23:03:38.142Z,90.27
2024-01-22T23:06:17.899Z,90.53
2024-01-22T23:09:04.887Z,90.49
2024-01-22T23:11:38.193Z,90.52
2024-01-22T23:14:24.852Z,90.61
2024-01-22T23:17:04.851Z,90.78
2024-01-22T23:19:45.868Z,90.50
2024-01-22T23:22:25.862Z,90.29
2024-01-22T23:25:05.939Z,90.44
2024-01-22T23:27:45.863Z,90.64
2024-01-22T23:30:32.909Z,90.90
2024-01-22T23:33:12.962Z,91.09
2024-01-22T23:35:53.002Z,90.90
2024-01-22T23:38:32.884Z,91.05
2024-01-22T23:41:13.138Z,91.27
2024-01-22T23:43:52.850Z,91.16
2024-01-22T23:46:32.972Z,91.29
2024-01-22T23:49:13.921Z,91.49
2024-01-22T23:51:53.989Z,91.45
2024-01-22T23:54:33.930Z,91.54
2024-01-22T23:57:15.013Z,91.46
2024-01-22T23:59:54.872Z,91.76
